Time;durP1;ratioP1;P1;durP2;ratioP2;P2;SDS_P1;SDS_P2;PMS_P1;PMS_P2;Temp;Humidity;BMP_temperature;BMP_pressure;BME280_temperature;BME280_humidity;BME280_pressure;Samples;Min_cycle;Max_cycle;Signal;HPM_P1;HPM_P2
2023/08/26 00:00:34;;;;;;;11.02;7.90;;;;;;;20.25;100.00;99725.47;5018866;28;20056;-73
2023/08/26 00:03:05;;;;;;;12.20;7.70;;;;;;;20.24;100.00;99718.41;5036923;28;20095;-74
2023/08/26 00:05:35;;;;;;;10.80;8.73;;;;;;;20.26;100.00;99710.19;4997649;28;20064;-76
2023/08/26 00:08:05;;;;;;;11.20;8.73;;;;;;;20.23;100.00;99711.34;5013747;28;20128;-76
2023/08/26 00:10:35;;;;;;;13.00;9.25;;;;;;;20.20;100.00;99714.31;4998596;28;20053;-76
2023/08/26 00:13:04;;;;;;;11.18;9.23;;;;;;;20.20;100.00;99714.31;5012894;28;20045;-77
2023/08/26 00:15:33;;;;;;;12.48;8.73;;;;;;;20.11;100.00;99699.09;5002262;28;20041;-75
2023/08/26 00:18:02;;;;;;;10.93;8.70;;;;;;;20.18;100.00;99724.38;5011835;28;20042;-74
2023/08/26 00:20:32;;;;;;;14.55;10.25;;;;;;;20.00;100.00;99693.06;5018323;28;20076;-74
2023/08/26 00:23:03;;;;;;;16.50;10.18;;;;;;;20.07;100.00;99716.50;5039637;28;20513;-74
2023/08/26 00:25:32;;;;;;;12.77;10.38;;;;;;;20.05;100.00;99723.03;5019287;28;20128;-75
2023/08/26 00:28:00;;;;;;;13.35;9.52;;;;;;;19.98;100.00;99705.81;5017622;28;20053;-75
2023/08/26 00:30:30;;;;;;;13.73;9.68;;;;;;;19.93;100.00;99708.94;5016282;28;20418;-75
2023/08/26 00:32:58;;;;;;;11.75;8.98;;;;;;;19.94;100.00;99710.63;5015580;28;20375;-76
2023/08/26 00:35:26;;;;;;;12.07;8.57;;;;;;;19.80;100.00;99698.53;5021393;28;20041;-76
2023/08/26 00:37:55;;;;;;;13.43;8.90;;;;;;;19.99;100.00;99720.97;5020149;28;20041;-77
2023/08/26 00:40:26;;;;;;;11.02;9.30;;;;;;;20.02;100.00;99726.00;5022380;28;20053;-74
2023/08/26 00:42:54;;;;;;;12.98;9.45;;;;;;;20.06;100.00;99730.09;5023873;28;20068;-76
2023/08/26 00:45:23;;;;;;;11.73;9.02;;;;;;;20.04;100.00;99714.13;5022820;28;20038;-75
2023/08/26 00:47:54;;;;;;;13.00;8.45;;;;;;;20.01;100.00;99686.69;5031677;28;20168;-77
2023/08/26 00:50:23;;;;;;;;;;;;;;;20.16;100.00;99714.75;5016553;28;20049;-75
2023/08/26 00:52:57;;;;;;;13.75;8.27;;;;;;;20.03;100.00;99706.19;5018733;28;20016;-76
2023/08/26 00:55:28;;;;;;;12.07;8.10;;;;;;;19.91;100.00;99695.66;5011626;28;20089;-76
2023/08/26 00:57:56;;;;;;;9.80;7.18;;;;;;;19.64;100.00;99668.78;5017272;28;20056;-77
2023/08/26 01:00:25;;;;;;;10.43;7.75;;;;;;;19.83;100.00;99713.53;5020243;28;20038;-75
2023/08/26 01:02:54;;;;;;;10.67;7.63;;;;;;;19.63;100.00;99680.50;5018869;28;20080;-75
2023/08/26 01:05:23;;;;;;;11.05;6.90;;;;;;;19.96;100.00;99731.00;5010170;28;20103;-75
2023/08/26 01:07:51;;;;;;;9.40;6.88;;;;;;;19.88;100.00;99708.53;5010903;28;20081;-76
2023/08/26 01:10:27;;;;;;;10.18;6.78;;;;;;;19.75;100.00;99683.84;5007942;28;20042;-78
2023/08/26 01:13:02;;;;;;;7.60;5.88;;;;;;;19.92;100.00;99694.66;4982604;28;20038;-79
2023/08/26 01:15:32;;;;;;;9.15;5.65;;;;;;;19.90;100.00;99699.34;4988981;28;20057;-78
2023/08/26 01:18:05;;;;;;;13.38;5.90;;;;;;;19.83;100.00;99686.66;5007612;28;20806;-74
2023/08/26 01:20:35;;;;;;;9.48;5.50;;;;;;;20.01;100.00;99730.53;5013709;28;20053;-74
2023/08/26 01:23:10;;;;;;;11.18;5.18;;;;;;;19.69;100.00;99685.28;4997534;28;20068;-77
2023/08/26 01:25:44;;;;;;;9.02;5.40;;;;;;;19.76;100.00;99713.25;4996199;28;20458;-74
2023/08/26 01:28:16;;;;;;;7.90;5.13;;;;;;;19.58;100.00;99710.47;4990844;28;20173;-82
2023/08/26 01:30:48;;;;;;;9.23;5.97;;;;;;;19.42;100.00;99690.56;4998410;28;20149;-76
2023/08/26 01:33:22;;;;;;;8.15;6.00;;;;;;;19.63;100.00;99731.53;5002564;28;20046;-76
2023/08/26 01:35:59;;;;;;;12.30;5.78;;;;;;;19.67;100.00;99727.56;4994391;28;20058;-75
2023/08/26 01:38:29;;;;;;;7.50;5.10;;;;;;;19.43;100.00;99686.91;4977969;28;20104;-83
2023/08/26 01:41:02;;;;;;;7.05;5.68;;;;;;;19.79;100.00;99750.59;4995978;28;20030;-75
2023/08/26 01:43:34;;;;;;;6.63;4.85;;;;;;;19.62;100.00;99716.41;5000763;28;20038;-75
2023/08/26 01:46:03;;;;;;;7.93;4.95;;;;;;;19.62;100.00;99711.03;5019712;28;20042;-75
2023/08/26 01:48:31;;;;;;;6.50;4.50;;;;;;;19.87;100.00;99742.63;5010824;28;20096;-75
2023/08/26 01:51:00;;;;;;;5.60;4.22;;;;;;;19.80;100.00;99728.09;5012839;28;20065;-79
2023/08/26 01:53:28;;;;;;;8.70;4.95;;;;;;;19.76;100.00;99737.44;5003334;28;20161;-74
2023/08/26 01:55:56;;;;;;;11.05;5.13;;;;;;;19.55;100.00;99715.28;5024824;28;20069;-78
2023/08/26 01:58:29;;;;;;;5.53;4.97;;;;;;;19.53;100.00;99722.66;5006177;28;20034;-75
2023/08/26 02:01:03;;;;;;;7.57;5.00;;;;;;;19.47;100.00;99726.75;4998966;28;20037;-74
2023/08/26 02:03:33;;;;;;;7.80;5.30;;;;;;;19.56;100.00;99744.69;4999368;28;20050;-74
2023/08/26 02:06:03;;;;;;;8.82;5.38;;;;;;;19.64;100.00;99760.09;5016472;28;20549;-75
2023/08/26 02:08:31;;;;;;;8.25;5.07;;;;;;;19.63;100.00;99753.03;4994474;28;20046;-75
2023/08/26 02:10:59;;;;;;;7.22;5.00;;;;;;;19.42;100.00;99718.25;4990378;28;20118;-75
2023/08/26 02:13:32;;;;;;;5.10;4.53;;;;;;;19.54;100.00;99727.88;4995094;28;20590;-74
2023/08/26 02:16:00;;;;;;;8.93;4.60;;;;;;;19.76;100.00;99771.50;4995008;28;20050;-75
2023/08/26 02:18:29;;;;;;;6.87;4.93;;;;;;;19.64;100.00;99768.16;4973851;28;20057;-74
2023/08/26 02:20:58;;;;;;;7.32;5.30;;;;;;;19.60;100.00;99767.59;4994772;28;20563;-76
2023/08/26 02:23:27;;;;;;;7.25;5.10;;;;;;;19.65;100.00;99767.16;5000043;28;20042;-75
2023/08/26 02:25:56;;;;;;;7.03;5.22;;;;;;;19.53;100.00;99736.06;4996966;28;20046;-82
2023/08/26 02:28:25;;;;;;;8.07;5.50;;;;;;;19.39;100.00;99709.66;4983709;28;20049;-74
2023/08/26 02:30:55;;;;;;;9.20;6.53;;;;;;;19.35;100.00;99719.84;5008226;28;20513;-75
2023/08/26 02:33:26;;;;;;;9.05;6.05;;;;;;;19.50;100.00;99764.09;4989289;28;20129;-76
2023/08/26 02:35:54;;;;;;;;;;;;;;;19.47;100.00;99771.53;4993427;28;20097;-81
2023/08/26 02:38:25;;;;;;;9.35;6.55;;;;;;;19.47;100.00;99767.03;4992758;28;19960;-77
2023/08/26 02:40:55;;;;;;;10.63;7.00;;;;;;;19.52;100.00;99774.66;4992990;28;20105;-75
2023/08/26 02:43:23;;;;;;;10.82;7.05;;;;;;;19.52;100.00;99769.28;4995589;28;20038;-75
2023/08/26 02:45:53;;;;;;;7.20;6.05;;;;;;;19.23;100.00;99721.81;4988817;28;20235;-74
2023/08/26 02:48:23;;;;;;;8.00;6.25;;;;;;;19.43;100.00;99756.69;4992739;28;20525;-76
2023/08/26 02:50:56;;;;;;;8.20;7.07;;;;;;;19.40;100.00;99741.72;4975274;28;20046;-77
2023/08/26 02:53:25;;;;;;;11.48;7.40;;;;;;;19.38;100.00;99748.22;5009794;28;20042;-77
2023/08/26 02:55:56;;;;;;;9.02;6.68;;;;;;;19.45;100.00;99792.31;4993985;28;20049;-74
2023/08/26 02:58:25;;;;;;;10.82;6.70;;;;;;;19.54;100.00;99796.84;4991103;28;20045;-77
2023/08/26 03:00:56;;;;;;;9.48;7.35;;;;;;;19.54;100.00;99775.38;4994512;28;20053;-74
2023/08/26 03:03:26;;;;;;;13.88;7.70;;;;;;;19.69;100.00;99797.25;5010357;28;20038;-74
2023/08/26 03:05:57;;;;;;;9.50;7.13;;;;;;;19.50;100.00;99793.63;4987941;28;20053;-81
2023/08/26 03:08:26;;;;;;;13.65;8.43;;;;;;;19.55;100.00;99820.03;4992569;28;20057;-75
2023/08/26 03:11:00;;;;;;;11.95;8.18;;;;;;;19.50;100.00;99823.16;4987538;28;20050;-76
2023/08/26 03:13:28;;;;;;;11.05;8.05;;;;;;;19.51;100.00;99829.38;4994778;28;20050;-74
2023/08/26 03:15:58;;;;;;;13.68;8.82;;;;;;;19.23;100.00;99788.94;4980365;28;20053;-74
2023/08/26 03:18:29;;;;;;;16.80;9.57;;;;;;;19.52;100.00;99849.84;4969382;28;20050;-75
2023/08/26 03:21:03;;;;;;;19.63;9.50;;;;;;;19.43;100.00;99838.09;4990035;28;20038;-77
2023/08/26 03:23:34;;;;;;;13.82;10.65;;;;;;;19.54;100.00;99850.56;5000012;28;20081;-75
2023/08/26 03:26:05;;;;;;;11.60;9.50;;;;;;;19.45;100.00;99836.13;5013832;28;20493;-78
2023/08/26 03:28:35;;;;;;;12.68;10.30;;;;;;;19.52;100.00;99831.06;4997317;28;20042;-80
2023/08/26 03:31:07;;;;;;;13.93;11.23;;;;;;;19.46;100.00;99850.41;4999465;28;20046;-76
2023/08/26 03:33:42;;;;;;;12.52;10.35;;;;;;;19.32;100.00;99840.94;5016680;28;20593;-79
2023/08/26 03:36:12;;;;;;;16.02;10.48;;;;;;;19.31;100.00;99857.19;4996894;28;20068;-77
2023/08/26 03:38:40;;;;;;;11.25;10.10;;;;;;;19.25;100.00;99864.81;4997122;28;20100;-79
2023/08/26 03:41:09;;;;;;;12.45;9.93;;;;;;;19.05;100.00;99833.56;5013797;28;20037;-76
2023/08/26 03:43:37;;;;;;;12.07;10.70;;;;;;;18.98;100.00;99829.75;5000426;28;20141;-77
2023/08/26 03:46:06;;;;;;;18.55;9.95;;;;;;;18.99;100.00;99838.66;4979893;28;20034;-78
2023/08/26 03:48:35;;;;;;;11.00;8.90;;;;;;;18.84;100.00;99843.56;4981662;28;20053;-74
2023/08/26 03:51:05;;;;;;;10.20;8.73;;;;;;;18.71;100.00;99851.03;4998305;28;20042;-75
2023/08/26 03:53:35;;;;;;;12.40;9.98;;;;;;;18.52;100.00;99833.84;4999346;28;20038;-77
2023/08/26 03:56:04;;;;;;;14.77;11.10;;;;;;;18.79;100.00;99884.22;4998537;28;20042;-75
2023/08/26 03:58:32;;;;;;;12.02;9.68;;;;;;;18.51;100.00;99847.38;5006927;28;20133;-75
2023/08/26 04:01:06;;;;;;;11.45;10.32;;;;;;;18.72;100.00;99882.22;4992917;28;20065;-74
2023/08/26 04:03:35;;;;;;;11.20;9.57;;;;;;;18.51;100.00;99848.25;4999938;28;20038;-76
2023/08/26 04:06:06;;;;;;;15.50;10.63;;;;;;;18.53;100.00;99862.38;4996762;28;20046;-77
2023/08/26 04:08:34;;;;;;;;;;;;;;;18.65;100.00;99892.63;4999456;28;20491;-78
2023/08/26 04:11:03;;;;;;;11.68;10.35;;;;;;;18.55;100.00;99902.44;4993904;28;19972;-75
2023/08/26 04:13:34;;;;;;;17.20;9.98;;;;;;;18.50;100.00;99893.94;4991252;28;20047;-74
2023/08/26 04:16:03;;;;;;;10.82;8.40;;;;;;;18.30;100.00;99860.00;4996814;28;20419;-75
2023/08/26 04:18:34;;;;;;;13.23;10.15;;;;;;;18.49;100.00;99895.78;5012018;28;20532;-76
2023/08/26 04:21:06;;;;;;;11.73;10.52;;;;;;;18.12;100.00;99844.53;5006519;28;20611;-76
2023/08/26 04:23:35;;;;;;;15.27;11.10;;;;;;;18.18;100.00;99872.63;4981081;28;20569;-74
2023/08/26 04:26:03;;;;;;;15.80;11.15;;;;;;;18.21;100.00;99886.63;4992639;28;20502;-75
2023/08/26 04:28:32;;;;;;;13.25;10.23;;;;;;;18.30;100.00;99903.72;4995605;28;20046;-75
2023/08/26 04:31:02;;;;;;;;;;;;;;;18.28;100.00;99903.00;5007985;28;20211;-75
2023/08/26 04:33:32;;;;;;;12.05;10.75;;;;;;;18.28;100.00;99894.13;4994343;28;19929;-75
2023/08/26 04:36:01;;;;;;;13.48;10.40;;;;;;;18.05;100.00;99874.69;4991323;28;20113;-74
2023/08/26 04:38:31;;;;;;;15.02;10.10;;;;;;;18.22;100.00;99917.81;4991690;28;20128;-77
2023/08/26 04:41:02;;;;;;;14.98;10.80;;;;;;;17.87;100.00;99856.53;4990544;28;20049;-75
2023/08/26 04:43:34;;;;;;;15.82;10.85;;;;;;;18.21;100.00;99920.63;4995136;28;20042;-75
2023/08/26 04:46:03;;;;;;;12.70;9.35;;;;;;;17.96;100.00;99880.81;5014080;28;20145;-75
2023/08/26 04:48:33;;;;;;;13.82;10.50;;;;;;;18.20;100.00;99917.09;5004844;28;20367;-77
2023/08/26 04:51:02;;;;;;;14.25;10.07;;;;;;;18.22;100.00;99922.31;5011933;28;20411;-77
2023/08/26 04:53:33;;;;;;;11.13;9.13;;;;;;;18.23;100.00;99926.69;4999715;28;20080;-75
2023/08/26 04:56:02;;;;;;;10.98;9.45;;;;;;;17.86;100.00;99862.00;4993559;28;20292;-75
2023/08/26 04:58:33;;;;;;;12.90;11.05;;;;;;;18.19;100.00;99909.16;4993757;28;20089;-82
2023/08/26 05:01:02;;;;;;;11.93;10.45;;;;;;;18.30;100.00;99938.56;4993593;28;20081;-74
2023/08/26 05:03:33;;;;;;;14.27;10.68;;;;;;;18.28;100.00;99932.50;4991096;28;20122;-76
2023/08/26 05:06:03;;;;;;;12.80;9.80;;;;;;;18.37;100.00;99936.22;4994113;28;20081;-74
2023/08/26 05:08:35;;;;;;;12.50;7.93;;;;;;;18.21;100.00;99929.50;5010897;28;21293;-75
2023/08/26 05:11:06;;;;;;;;;;;;;;;18.35;100.00;99946.22;4990836;28;20046;-75
2023/08/26 05:13:36;;;;;;;9.80;6.60;;;;;;;18.05;100.00;99914.88;4998573;28;19971;-77
2023/08/26 05:16:04;;;;;;;7.07;5.75;;;;;;;17.95;100.00;99914.78;4996587;28;20069;-74
2023/08/26 05:18:34;;;;;;;11.48;5.50;;;;;;;18.20;100.00;99961.78;4996173;28;20153;-76
2023/08/26 05:21:03;;;;;;;6.43;5.40;;;;;;;18.19;100.00;99960.94;4989357;28;20053;-75
2023/08/26 05:23:35;;;;;;;8.65;5.00;;;;;;;18.15;100.00;99970.22;4999365;28;20089;-75
2023/08/26 05:26:08;;;;;;;8.05;4.28;;;;;;;18.00;100.00;99968.84;4980561;28;20137;-76
2023/08/26 05:28:36;;;;;;;4.97;3.83;;;;;;;18.12;100.00;99980.34;5011425;28;20045;-78
2023/08/26 05:31:08;;;;;;;5.27;3.40;;;;;;;17.94;100.00;99955.13;5017502;28;20053;-75
2023/08/26 05:33:36;;;;;;;8.07;2.63;;;;;;;17.86;100.00;99975.34;5008981;28;20481;-76
2023/08/26 05:36:06;;;;;;;4.55;2.65;;;;;;;17.81;100.00;99979.38;5002606;28;20058;-74
2023/08/26 05:38:39;;;;;;;2.85;2.30;;;;;;;17.77;100.00;99983.31;5017130;28;20045;-75
2023/08/26 05:41:08;;;;;;;4.00;2.20;;;;;;;17.66;100.00;99983.34;5004775;28;20045;-76
2023/08/26 05:43:37;;;;;;;4.57;2.30;;;;;;;17.70;100.00;99988.31;4988101;28;20126;-75
2023/08/26 05:46:05;;;;;;;5.05;1.92;;;;;;;17.62;100.00;99982.75;4990724;28;20114;-77
2023/08/26 05:48:34;;;;;;;4.93;1.90;;;;;;;17.72;100.00;99989.06;5010811;28;20065;-75
2023/08/26 05:51:03;;;;;;;5.03;1.85;;;;;;;17.63;100.00;99968.34;4974132;28;20073;-75
2023/08/26 05:53:32;;;;;;;4.32;1.70;;;;;;;17.62;100.00;99972.03;4977914;28;20042;-76
2023/08/26 05:56:02;;;;;;;3.88;1.80;;;;;;;17.53;100.00;99962.06;4997710;28;20069;-77
2023/08/26 05:58:30;;;;;;;3.30;2.08;;;;;;;17.76;100.00;100022.66;4994412;28;20077;-76
2023/08/26 06:00:59;;;;;;;5.07;1.70;;;;;;;17.67;100.00;100019.84;4992908;28;20064;-76
2023/08/26 06:03:28;;;;;;;4.00;1.67;;;;;;;17.49;100.00;100004.28;4999728;28;20042;-75
2023/08/26 06:05:58;;;;;;;3.57;1.83;;;;;;;17.38;100.00;100001.66;4992844;28;20061;-80
2023/08/26 06:08:28;;;;;;;3.40;1.77;;;;;;;17.50;100.00;100005.13;4992242;28;20480;-76
2023/08/26 06:10:57;;;;;;;6.68;2.15;;;;;;;17.70;100.00;100046.38;4990530;28;20080;-79
2023/08/26 06:13:28;;;;;;;;;;;;;;;17.69;100.00;100042.84;4978407;28;20053;-75
2023/08/26 06:16:01;;;;;;;4.15;1.80;;;;;;;17.70;100.00;100046.38;4989316;28;19922;-77
2023/08/26 06:18:31;;;;;;;5.68;2.08;;;;;;;17.65;100.00;100056.63;4995007;28;20045;-75
2023/08/26 06:20:59;;;;;;;2.55;1.70;;;;;;;17.64;100.00;100054.91;4992090;28;20053;-76
2023/08/26 06:23:29;;;;;;;4.32;1.80;;;;;;;17.71;100.00;100067.69;5007131;28;20057;-76
2023/08/26 06:26:02;;;;;;;5.47;1.83;;;;;;;17.60;100.00;100069.50;4992203;28;20046;-76
2023/08/26 06:28:34;;;;;;;2.72;1.70;;;;;;;17.18;100.00;100026.47;4990306;28;20049;-75
2023/08/26 06:31:03;;;;;;;5.05;1.65;;;;;;;17.17;100.00;100028.31;4987340;28;20100;-75
2023/08/26 06:33:38;;;;;;;4.32;1.73;;;;;;;17.35;100.00;100078.66;4994263;28;20072;-77
2023/08/26 06:36:09;;;;;;;3.67;1.98;;;;;;;17.31;100.00;100077.22;5009110;28;20502;-77
2023/08/26 06:38:41;;;;;;;5.15;2.00;;;;;;;17.34;100.00;100074.28;4993682;28;20037;-74
2023/08/26 06:41:10;;;;;;;2.67;1.50;;;;;;;17.18;100.00;100069.28;4992392;28;20060;-76
2023/08/26 06:43:40;;;;;;;3.95;1.65;;;;;;;16.87;100.00;100037.91;5010878;28;20045;-75
2023/08/26 06:46:13;;;;;;;3.15;1.70;;;;;;;17.00;100.00;100068.09;4991689;28;20070;-74
2023/08/26 06:48:47;;;;;;;4.55;1.50;;;;;;;17.22;100.00;100078.78;5007402;28;20469;-74
2023/08/26 06:51:16;;;;;;;3.70;1.60;;;;;;;17.24;100.00;100041.19;4987540;28;20673;-76
2023/08/26 06:53:45;;;;;;;3.20;1.40;;;;;;;17.88;100.00;100063.63;4979831;28;20767;-76
2023/08/26 06:56:13;;;;;;;4.28;1.55;;;;;;;17.80;100.00;100048.16;4993638;28;20166;-75
2023/08/26 06:58:43;;;;;;;5.95;1.50;;;;;;;17.53;100.00;100010.25;4976990;28;20059;-79
2023/08/26 07:01:14;;;;;;;2.87;1.40;;;;;;;17.73;100.00;100024.72;4986123;28;20045;-73
2023/08/26 07:03:42;;;;;;;3.20;1.42;;;;;;;17.83;100.00;100039.03;4992013;28;20046;-75
2023/08/26 07:06:11;;;;;;;5.05;1.70;;;;;;;17.91;100.00;100071.41;4994234;28;20445;-76
2023/08/26 07:08:41;;;;;;;7.28;1.60;;;;;;;17.90;100.00;100066.19;5014609;28;20046;-75
2023/08/26 07:11:10;;;;;;;3.00;1.30;;;;;;;18.03;100.00;100082.94;5006321;28;20485;-74
2023/08/26 07:13:38;;;;;;;3.72;1.30;;;;;;;17.90;100.00;100048.28;4997165;28;20050;-73
2023/08/26 07:16:09;;;;;;;2.63;1.50;;;;;;;18.20;100.00;100077.03;4989631;28;20370;-75
2023/08/26 07:18:38;;;;;;;;;;;;;;;18.56;100.00;100065.91;5009491;28;20038;-75
2023/08/26 07:21:09;;;;;;;3.72;1.42;;;;;;;18.49;100.00;100064.69;4975763;28;20307;-75
2023/08/26 07:23:40;;;;;;;4.18;1.30;;;;;;;18.19;100.00;100057.41;4996126;28;20042;-76
2023/08/26 07:26:08;;;;;;;5.68;1.35;;;;;;;17.90;100.00;100055.47;4989615;28;20141;-74
2023/08/26 07:28:38;;;;;;;2.45;1.20;;;;;;;17.44;100.00;100017.22;4995304;28;20045;-74
2023/08/26 07:31:09;;;;;;;2.45;1.20;;;;;;;17.61;100.00;100053.31;4973173;28;20046;-75
2023/08/26 07:33:38;;;;;;;5.07;1.20;;;;;;;17.29;100.00;100009.59;4977999;28;20046;-74
2023/08/26 07:36:09;;;;;;;2.25;1.30;;;;;;;17.57;100.00;100046.50;4975906;28;20053;-68
2023/08/26 07:38:39;;;;;;;2.28;1.15;;;;;;;17.72;100.00;100055.16;4986187;28;20050;-69
2023/08/26 07:41:08;;;;;;;3.47;1.10;;;;;;;17.85;100.00;100053.16;4977273;28;20082;-70
2023/08/26 07:43:37;;;;;;;3.63;1.30;;;;;;;17.96;100.00;100050.44;5011008;28;20050;-74
2023/08/26 07:46:10;;;;;;;3.53;1.50;;;;;;;17.94;100.00;100059.59;4956961;28;20065;-73
2023/08/26 07:48:47;;;;;;;2.40;1.20;;;;;;;17.92;100.00;100054.38;4978698;28;20058;-74
2023/08/26 07:51:18;;;;;;;1.92;1.20;;;;;;;17.96;100.00;100049.59;4975863;28;20519;-73
2023/08/26 07:53:46;;;;;;;3.67;1.00;;;;;;;18.02;100.00;100047.25;4998390;28;20046;-73
2023/08/26 07:56:15;;;;;;;3.13;1.15;;;;;;;18.11;100.00;100056.34;4998018;28;20121;-77
2023/08/26 07:58:45;;;;;;;6.20;1.48;;;;;;;18.14;100.00;100058.78;4999106;28;20129;-75
2023/08/26 08:01:18;;;;;;;1.65;1.15;;;;;;;18.04;100.00;100031.06;4996020;28;20149;-72
2023/08/26 08:03:48;;;;;;;2.65;1.20;;;;;;;18.46;100.00;100062.28;5005818;28;20045;-74
2023/08/26 08:06:17;;;;;;;2.78;1.25;;;;;;;18.78;100.00;100035.41;5003811;28;20097;-74
2023/08/26 08:08:45;;;;;;;2.53;1.30;;;;;;;19.47;90.28;100029.34;5007070;28;20065;-74
2023/08/26 08:11:17;;;;;;;2.90;1.20;;;;;;;20.27;84.94;100056.06;5017167;28;20053;-75
2023/08/26 08:13:46;;;;;;;2.30;1.23;;;;;;;20.52;80.46;100054.63;5022498;28;20049;-78
2023/08/26 08:16:14;;;;;;;1.67;1.13;;;;;;;20.67;76.69;100062.09;5000108;28;20101;-77
2023/08/26 08:18:47;;;;;;;4.57;1.30;;;;;;;20.73;66.83;100065.22;4996461;28;20093;-78
2023/08/26 08:21:17;;;;;;;4.15;1.10;;;;;;;20.78;69.16;100061.09;5000660;28;20124;-79
2023/08/26 08:23:45;;;;;;;2.73;1.47;;;;;;;20.83;66.43;100037.28;5001540;28;20034;-76
2023/08/26 08:26:14;;;;;;;2.85;0.93;;;;;;;20.90;63.94;100051.88;5018364;28;20465;-78
2023/08/26 08:28:42;;;;;;;3.92;1.27;;;;;;;20.94;67.84;100047.88;5002438;28;20129;-78
2023/08/26 08:31:11;;;;;;;1.57;1.03;;;;;;;21.02;66.08;100057.91;4997536;28;20076;-80
2023/08/26 08:33:39;;;;;;;3.13;1.00;;;;;;;20.48;65.03;100021.78;4997973;28;20110;-77
2023/08/26 08:36:12;;;;;;;2.40;0.68;;;;;;;20.63;63.43;100058.00;4989310;28;20069;-79
2023/08/26 08:38:42;;;;;;;2.70;1.13;;;;;;;20.42;65.28;100037.66;4983407;28;20053;-79
2023/08/26 08:41:13;;;;;;;1.00;0.70;;;;;;;20.32;68.06;100021.50;5013245;28;20114;-77
2023/08/26 08:43:47;;;;;;;;;;;;;;;20.54;69.49;100069.63;4989841;28;20042;-77
2023/08/26 08:46:17;;;;;;;3.22;0.88;;;;;;;20.03;67.70;100000.00;4992757;28;19921;-77
2023/08/26 08:48:47;;;;;;;1.95;1.08;;;;;;;20.33;68.03;100066.22;5007210;28;20665;-77
2023/08/26 08:51:24;;;;;;;2.03;1.13;;;;;;;20.37;70.32;100064.97;5003191;28;20081;-76
2023/08/26 08:53:53;;;;;;;2.13;1.05;;;;;;;20.48;70.96;100066.66;5019397;28;20069;-78
2023/08/26 08:56:23;;;;;;;2.75;1.10;;;;;;;20.80;72.66;100074.41;5003863;28;20052;-76
2023/08/26 08:58:53;;;;;;;2.13;1.27;;;;;;;21.08;71.36;100073.50;5005126;28;20054;-76
2023/08/26 09:01:24;;;;;;;;;;;;;;;21.41;65.27;100080.16;4978255;28;20500;-77
2023/08/26 09:03:53;;;;;;;1.30;0.90;;;;;;;21.66;60.27;100070.56;5001651;28;19936;-76
2023/08/26 09:06:25;;;;;;;2.35;0.88;;;;;;;21.81;58.12;100068.19;4979557;28;20060;-74
2023/08/26 09:09:02;;;;;;;2.92;0.98;;;;;;;21.67;58.99;100039.91;5009109;28;20616;-73
2023/08/26 09:11:31;;;;;;;2.78;1.00;;;;;;;22.02;57.92;100069.66;5007754;28;20034;-75
2023/08/26 09:14:01;;;;;;;4.15;1.30;;;;;;;21.90;57.41;100075.34;5019001;28;20046;-75
2023/08/26 09:16:32;;;;;;;2.47;0.80;;;;;;;21.61;56.48;100070.16;4992925;28;20518;-75
2023/08/26 09:19:00;;;;;;;1.42;0.90;;;;;;;21.42;57.78;100054.94;4995012;28;20085;-74
2023/08/26 09:21:31;;;;;;;2.33;0.90;;;;;;;21.54;58.60;100069.91;4996512;28;20745;-74
2023/08/26 09:24:01;;;;;;;1.75;0.93;;;;;;;21.69;58.66;100059.47;4996176;28;20143;-74
2023/08/26 09:26:33;;;;;;;4.30;1.08;;;;;;;21.77;57.17;100050.63;5001581;28;20141;-78
2023/08/26 09:29:02;;;;;;;1.95;0.98;;;;;;;22.09;56.70;100069.88;5013731;28;20140;-74
2023/08/26 09:31:31;;;;;;;4.50;1.77;;;;;;;22.09;55.92;100059.06;5010535;28;20192;-75
2023/08/26 09:34:01;;;;;;;3.13;1.38;;;;;;;21.86;56.41;100052.41;4993053;28;20483;-75
2023/08/26 09:36:41;;;;;;;2.05;0.90;;;;;;;21.88;56.89;100066.59;4961049;28;20069;-75
2023/08/26 09:39:14;;;;;;;1.73;1.10;;;;;;;21.98;58.18;100054.75;4980718;28;20057;-76
2023/08/26 09:41:46;;;;;;;3.38;1.10;;;;;;;22.12;56.60;100053.38;4996795;28;20471;-73
2023/08/26 09:44:21;;;;;;;2.03;1.00;;;;;;;22.14;55.44;100024.41;5009635;28;20694;-74
2023/08/26 09:46:57;;;;;;;2.15;0.95;;;;;;;22.25;54.52;100037.66;5009907;28;20141;-73
2023/08/26 09:49:25;;;;;;;2.53;0.90;;;;;;;22.43;54.34;100050.28;5002728;28;20126;-73
2023/08/26 09:51:57;;;;;;;3.15;1.20;;;;;;;22.60;53.37;100042.16;5004128;28;20049;-74
2023/08/26 09:54:28;;;;;;;2.42;1.25;;;;;;;22.64;53.79;100034.59;5002988;28;20671;-74
2023/08/26 09:56:58;;;;;;;2.60;0.90;;;;;;;22.29;54.04;100030.94;5020066;28;20232;-73
2023/08/26 09:59:33;;;;;;;1.80;1.07;;;;;;;21.94;56.24;100044.41;5022994;28;20057;-75
2023/08/26 10:02:08;;;;;;;2.60;1.02;;;;;;;21.91;57.18;100031.22;4997808;28;20878;-74
2023/08/26 10:04:38;;;;;;;2.80;1.00;;;;;;;21.77;57.37;100040.69;5014333;28;20057;-75
2023/08/26 10:07:08;;;;;;;2.40;1.20;;;;;;;21.86;58.14;100036.25;5008630;28;20049;-75
2023/08/26 10:09:45;;;;;;;6.18;1.13;;;;;;;21.77;56.31;100031.75;5000595;28;20050;-74
2023/08/26 10:12:24;;;;;;;1.95;1.00;;;;;;;21.48;57.31;100048.09;4994377;28;20054;-75
2023/08/26 10:15:00;;;;;;;2.25;1.27;;;;;;;21.37;60.06;100041.09;4979601;28;20049;-75
2023/08/26 10:17:32;;;;;;;4.05;1.08;;;;;;;21.47;59.05;100046.41;4986155;28;20065;-76
2023/08/26 10:20:03;;;;;;;2.10;1.15;;;;;;;21.40;58.01;100037.25;5016164;28;20109;-74
2023/08/26 10:22:34;;;;;;;2.47;0.90;;;;;;;21.05;56.75;99990.31;4998825;28;20050;-74
2023/08/26 10:25:05;;;;;;;11.68;5.10;;;;;;;21.25;57.34;100037.72;5018442;28;20093;-77
2023/08/26 10:27:37;;;;;;;1.85;1.20;;;;;;;21.55;58.51;100049.22;4991581;28;20060;-75
2023/08/26 10:30:08;;;;;;;2.95;1.00;;;;;;;21.96;58.63;100045.94;4992530;28;20050;-76
2023/08/26 10:32:44;;;;;;;2.13;1.10;;;;;;;22.29;56.89;100024.72;4996489;28;20113;-75
2023/08/26 10:35:17;;;;;;;2.25;1.90;;;;;;;22.70;55.56;100026.69;4995052;28;20069;-76
2023/08/26 10:37:51;;;;;;;2.67;1.50;;;;;;;22.86;53.44;100026.00;5004616;28;20509;-76
2023/08/26 10:40:33;;;;;;;2.97;1.10;;;;;;;22.84;52.86;100049.59;5001147;28;20042;-76
2023/08/26 10:43:06;;;;;;;2.45;0.90;;;;;;;22.80;52.75;100048.25;5006978;28;20534;-75
2023/08/26 10:45:47;;;;;;;4.22;2.35;;;;;;;23.00;52.91;100046.16;4999974;28;20080;-76
2023/08/26 10:48:18;;;;;;;3.22;1.00;;;;;;;23.30;50.08;100042.06;4976580;28;20714;-76
2023/08/26 10:51:00;;;;;;;1.58;1.15;;;;;;;23.56;51.91;100048.31;4992468;28;20136;-76
2023/08/26 10:53:43;;;;;;;3.38;1.00;;;;;;;23.74;48.20;100034.69;5006366;28;20048;-71
2023/08/26 10:56:17;;;;;;;2.55;1.17;;;;;;;23.84;48.44;100032.66;4988265;28;20052;-69
2023/08/26 10:58:46;;;;;;;3.00;0.90;;;;;;;23.91;49.16;100033.72;5001333;28;20050;-72
2023/08/26 11:01:15;;;;;;;3.40;1.20;;;;;;;23.20;48.35;99996.28;5009143;28;20042;-71
2023/08/26 11:03:45;;;;;;;2.42;0.95;;;;;;;22.96;50.62;100034.84;5005601;28;20592;-72
2023/08/26 11:06:19;;;;;;;3.05;0.90;;;;;;;22.71;52.29;100031.09;4989199;28;20061;-71
2023/08/26 11:08:57;;;;;;;1.73;0.90;;;;;;;22.78;51.29;100033.19;4982960;28;20136;-72
2023/08/26 11:11:27;;;;;;;1.98;1.00;;;;;;;22.95;52.84;100029.59;5004397;28;20135;-72
2023/08/26 11:13:55;;;;;;;4.30;1.35;;;;;;;23.15;50.63;100031.03;4976897;28;20498;-71
2023/08/26 11:16:28;;;;;;;2.28;0.90;;;;;;;23.06;51.25;100016.66;4993415;28;20046;-71
2023/08/26 11:18:58;;;;;;;1.40;0.80;;;;;;;23.11;51.63;100004.53;4983690;28;20506;-69
2023/08/26 11:21:27;;;;;;;1.67;1.10;;;;;;;23.18;52.17;100025.31;5001652;28;20049;-72
2023/08/26 11:24:01;;;;;;;2.92;0.93;;;;;;;23.35;51.91;100024.38;4990317;28;20083;-69
2023/08/26 11:26:29;;;;;;;2.30;1.40;;;;;;;23.54;50.75;100027.84;4973792;28;20133;-71
2023/08/26 11:29:02;;;;;;;3.10;1.10;;;;;;;23.47;49.14;100019.50;5000949;28;20104;-69
2023/08/26 11:31:32;;;;;;;3.25;1.17;;;;;;;23.55;50.88;100032.25;5003204;28;20042;-70
2023/08/26 11:34:01;;;;;;;2.47;0.98;;;;;;;23.47;48.72;100021.38;4989650;28;20077;-73
2023/08/26 11:36:30;;;;;;;2.45;1.00;;;;;;;23.39;49.98;100031.16;5003725;28;20097;-70